Time;durP1;ratioP1;P1;durP2;ratioP2;P2;SDS_P1;SDS_P2;PMS_P1;PMS_P2;Temp;Humidity;BMP_temperature;BMP_pressure;BME280_temperature;BME280_humidity;BME280_pressure;Samples;Min_cycle;Max_cycle;Signal;HPM_P1;HPM_P2
2021/01/01 00:00:46;;;;;;;93.97;40.85;;;3.50;99.90;;;;;;5052798;28;20186;-57
2021/01/01 00:03:12;;;;;;;96.18;36.15;;;3.50;99.90;;;;;;5052537;28;20210;-53
2021/01/01 00:05:39;;;;;;;89.95;34.85;;;3.60;99.90;;;;;;5053190;28;20178;-56
2021/01/01 00:08:06;;;;;;;81.47;34.72;;;3.70;99.90;;;;;;5053080;28;20185;-56
2021/01/01 00:10:32;;;;;;;78.88;31.25;;;3.70;99.90;;;;;;5052756;28;20183;-56
2021/01/01 00:12:58;;;;;;;79.15;32.72;;;3.70;99.90;;;;;;5052933;28;20636;-56
2021/01/01 00:15:24;;;;;;;83.25;31.88;;;3.70;99.90;;;;;;5052890;28;20537;-55
2021/01/01 00:17:50;;;;;;;86.97;32.72;;;3.70;99.90;;;;;;5053180;28;20193;-56
2021/01/01 00:20:17;;;;;;;70.32;29.83;;;3.70;99.90;;;;;;5052867;28;20170;-56
2021/01/01 00:22:43;;;;;;;74.95;30.92;;;3.70;99.90;;;;;;5052736;28;20557;-56
2021/01/01 00:25:09;;;;;;;73.55;28.30;;;3.70;99.90;;;;;;5053215;28;20229;-53
2021/01/01 00:27:36;;;;;;;74.10;30.23;;;3.60;99.90;;;;;;5053440;28;20166;-55
2021/01/01 00:30:04;;;;;;;66.72;27.45;;;3.70;99.90;;;;;;5052883;28;20167;-56
2021/01/01 00:32:30;;;;;;;66.15;28.10;;;3.70;99.90;;;;;;5051195;28;20186;-55
2021/01/01 00:34:56;;;;;;;67.40;28.38;;;3.60;99.90;;;;;;5052815;28;20163;-56
2021/01/01 00:37:22;;;;;;;77.75;30.77;;;3.60;99.90;;;;;;5052695;28;20182;-54
2021/01/01 00:39:48;;;;;;;72.50;29.42;;;3.70;99.90;;;;;;5052954;28;20175;-56
2021/01/01 00:42:14;;;;;;;77.07;30.77;;;3.70;99.90;;;;;;5050775;28;20218;-56
2021/01/01 00:44:41;;;;;;;68.38;29.10;;;3.60;99.90;;;;;;5052615;28;20174;-60
2021/01/01 00:47:11;;;;;;;70.28;28.25;;;3.60;99.90;;;;;;5051773;28;20186;-54
2021/01/01 00:49:37;;;;;;;64.47;27.65;;;3.50;99.90;;;;;;5054730;28;20202;-56
2021/01/01 00:52:04;;;;;;;62.38;27.05;;;3.60;99.90;;;;;;5056062;28;20190;-56
2021/01/01 00:54:31;;;;;;;66.88;27.83;;;3.60;99.90;;;;;;5063236;28;20642;-56
2021/01/01 00:56:57;;;;;;;63.33;26.80;;;3.60;99.90;;;;;;5065156;28;20193;-55
2021/01/01 00:59:24;;;;;;;58.55;24.90;;;3.50;99.90;;;;;;5072349;28;20170;-56
2021/01/01 01:01:50;;;;;;;56.40;26.45;;;3.60;99.90;;;;;;5071255;28;20216;-56
2021/01/01 01:04:16;;;;;;;63.00;25.48;;;3.60;99.90;;;;;;5053101;28;20185;-57
2021/01/01 01:06:42;;;;;;;57.50;25.70;;;3.60;99.90;;;;;;5053285;28;20195;-56
2021/01/01 01:09:08;;;;;;;70.80;28.05;;;3.50;99.90;;;;;;5054122;28;20190;-57
2021/01/01 01:11:34;;;;;;;64.25;25.95;;;3.50;99.90;;;;;;5055811;28;20189;-57
2021/01/01 01:14:02;;;;;;;61.33;26.52;;;3.50;99.90;;;;;;5055302;28;20178;-58
2021/01/01 01:16:30;;;;;;;64.57;26.35;;;3.60;99.90;;;;;;5054775;28;20170;-57
2021/01/01 01:18:57;;;;;;;63.70;25.75;;;3.50;99.90;;;;;;5055913;28;20183;-57
2021/01/01 01:21:23;;;;;;;62.30;24.98;;;3.50;99.90;;;;;;5056164;28;20653;-57
2021/01/01 01:23:49;;;;;;;63.50;25.58;;;3.50;99.90;;;;;;5056249;28;20223;-57
2021/01/01 01:26:16;;;;;;;63.97;26.10;;;3.60;99.90;;;;;;5056093;28;20213;-57
2021/01/01 01:28:42;;;;;;;57.47;23.73;;;3.50;99.90;;;;;;5055901;28;20205;-57
2021/01/01 01:31:08;;;;;;;63.20;24.55;;;3.50;99.90;;;;;;5055898;28;20194;-56
2021/01/01 01:33:35;;;;;;;56.47;23.58;;;3.60;99.90;;;;;;5055618;28;20178;-57
2021/01/01 01:36:01;;;;;;;53.60;23.75;;;3.60;99.90;;;;;;5054155;28;20198;-56
2021/01/01 01:38:27;;;;;;;53.17;23.50;;;3.60;99.90;;;;;;5055953;28;20626;-57
2021/01/01 01:40:54;;;;;;;53.08;22.77;;;3.50;99.90;;;;;;5055921;28;20193;-57
2021/01/01 01:43:20;;;;;;;56.00;23.88;;;3.60;99.90;;;;;;5055396;28;20241;-56
2021/01/01 01:45:46;;;;;;;50.92;22.55;;;3.60;99.90;;;;;;5054305;28;20179;-57
2021/01/01 01:48:14;;;;;;;57.22;23.27;;;3.60;99.90;;;;;;5055325;28;20178;-56
2021/01/01 01:50:41;;;;;;;53.13;21.40;;;3.60;99.90;;;;;;5037883;28;20175;-56
2021/01/01 01:53:07;;;;;;;48.80;22.40;;;3.50;99.90;;;;;;5050432;28;20190;-57
2021/01/01 01:55:34;;;;;;;42.13;20.80;;;3.50;99.90;;;;;;5055883;28;20190;-57
2021/01/01 01:58:00;;;;;;;50.10;22.67;;;3.50;99.90;;;;;;5055150;28;20182;-56
2021/01/01 02:02:56;;;;;;;49.80;23.30;;;3.60;99.90;;;;;;5054066;28;20705;-54
2021/01/01 02:05:22;;;;;;;43.25;19.83;;;3.50;99.90;;;;;;5037844;28;20205;-56
2021/01/01 02:07:48;;;;;;;42.88;19.95;;;3.50;99.90;;;;;;5055300;28;20646;-56
2021/01/01 02:10:14;;;;;;;38.25;18.45;;;3.40;99.90;;;;;;5054836;28;20187;-56
2021/01/01 02:12:40;;;;;;;43.47;20.10;;;3.50;99.90;;;;;;5054956;28;20191;-55
2021/01/01 02:15:07;;;;;;;40.55;19.00;;;3.40;99.90;;;;;;5055063;28;20183;-57
2021/01/01 02:17:33;;;;;;;39.67;20.05;;;3.40;99.90;;;;;;5055153;28;20186;-56
2021/01/01 02:20:06;;;;;;;40.85;18.05;;;3.40;99.90;;;;;;5055681;28;20650;-56
2021/01/01 02:22:36;;;;;;;44.00;19.90;;;3.40;99.90;;;;;;5054689;28;20576;-56
2021/01/01 02:25:04;;;;;;;39.78;17.70;;;3.30;99.90;;;;;;5055343;28;20602;-56
2021/01/01 02:27:30;;;;;;;39.25;17.98;;;3.30;99.90;;;;;;5054495;28;20192;-56
2021/01/01 02:29:56;;;;;;;42.53;19.27;;;3.20;99.90;;;;;;5054430;28;20547;-57
2021/01/01 02:32:22;;;;;;;37.80;19.48;;;3.30;99.90;;;;;;5054206;28;20547;-57
2021/01/01 02:34:48;;;;;;;40.03;19.63;;;3.30;99.90;;;;;;5054662;28;20190;-57
2021/01/01 02:37:14;;;;;;;38.30;18.92;;;3.30;99.90;;;;;;5054533;28;20518;-57
2021/01/01 02:39:41;;;;;;;36.38;18.60;;;3.30;99.90;;;;;;5052651;28;20190;-56
2021/01/01 02:42:07;;;;;;;36.20;18.38;;;3.30;99.90;;;;;;5053961;28;20201;-57
2021/01/01 02:44:33;;;;;;;36.65;17.30;;;3.30;99.90;;;;;;5053505;28;20179;-57
2021/01/01 02:47:03;;;;;;;36.67;17.58;;;3.30;99.90;;;;;;5054858;28;20190;-57
2021/01/01 02:49:32;;;;;;;35.10;18.10;;;3.30;99.90;;;;;;5054200;28;20178;-56
2021/01/01 02:51:59;;;;;;;36.63;17.45;;;3.20;99.90;;;;;;5054854;28;20198;-56
2021/01/01 02:54:25;;;;;;;37.75;18.45;;;3.20;99.90;;;;;;5054336;28;20179;-56
2021/01/01 02:56:52;;;;;;;33.22;16.33;;;3.20;99.90;;;;;;5052421;28;20187;-56
2021/01/01 02:59:21;;;;;;;34.30;17.17;;;3.20;99.90;;;;;;5053011;28;20182;-57
2021/01/01 03:01:47;;;;;;;33.38;16.75;;;3.20;99.90;;;;;;5046672;28;20189;-57
2021/01/01 03:04:14;;;;;;;35.72;16.63;;;3.20;99.90;;;;;;5053309;28;20195;-54
2021/01/01 03:06:40;;;;;;;34.35;15.07;;;3.20;99.90;;;;;;5054821;28;20185;-54
2021/01/01 03:09:06;;;;;;;33.08;15.77;;;3.30;99.90;;;;;;5054526;28;20561;-54
2021/01/01 03:11:32;;;;;;;33.08;16.02;;;3.20;99.90;;;;;;5054410;28;20175;-56
2021/01/01 03:13:58;;;;;;;29.85;16.15;;;3.20;99.90;;;;;;5054755;28;20186;-55
2021/01/01 03:16:24;;;;;;;27.58;14.65;;;3.20;99.90;;;;;;5052554;28;20642;-57
2021/01/01 03:18:51;;;;;;;32.97;15.55;;;3.20;99.90;;;;;;5053951;28;20186;-56
2021/01/01 03:21:20;;;;;;;30.52;15.60;;;3.20;99.90;;;;;;5053793;28;20185;-56
2021/01/01 03:23:46;;;;;;;26.58;13.98;;;3.30;99.90;;;;;;5053686;28;20721;-56
2021/01/01 03:26:12;;;;;;;27.75;13.98;;;3.20;99.90;;;;;;5053285;28;20222;-56
2021/01/01 03:28:39;;;;;;;27.30;14.57;;;3.20;99.90;;;;;;5053748;28;20181;-55
2021/01/01 03:31:05;;;;;;;30.13;15.10;;;3.10;99.90;;;;;;5052301;28;20186;-56
2021/01/01 03:33:31;;;;;;;28.55;14.90;;;3.10;99.90;;;;;;5053429;28;20209;-55
2021/01/01 03:35:57;;;;;;;32.95;14.55;;;3.10;99.90;;;;;;5053294;28;20544;-57
2021/01/01 03:38:23;;;;;;;25.20;13.02;;;3.10;99.90;;;;;;5053690;28;20171;-56
2021/01/01 03:40:49;;;;;;;25.65;13.10;;;3.20;99.90;;;;;;5053543;28;20182;-57
2021/01/01 03:43:15;;;;;;;30.70;14.07;;;3.20;99.90;;;;;;5053062;28;20210;-56
2021/01/01 03:45:41;;;;;;;21.85;12.70;;;3.20;99.90;;;;;;5053236;28;20187;-55
2021/01/01 03:48:08;;;;;;;25.20;13.60;;;3.20;99.90;;;;;;5053112;28;20178;-57
2021/01/01 03:50:34;;;;;;;22.40;11.95;;;3.20;99.90;;;;;;5051788;28;20194;-56
2021/01/01 03:53:00;;;;;;;24.52;13.27;;;3.10;99.90;;;;;;5053242;28;20183;-54
2021/01/01 03:55:26;;;;;;;24.05;13.35;;;3.10;99.90;;;;;;5053822;28;20185;-57
2021/01/01 03:57:52;;;;;;;21.23;12.18;;;3.10;99.90;;;;;;5053809;28;20233;-56
2021/01/01 04:00:19;;;;;;;24.48;12.80;;;3.00;99.90;;;;;;5052680;28;20198;-57
2021/01/01 04:02:45;;;;;;;23.17;12.50;;;3.10;99.90;;;;;;5052286;28;20210;-57
2021/01/01 04:05:11;;;;;;;28.38;13.60;;;3.10;99.90;;;;;;5052750;28;20194;-57
2021/01/01 04:07:37;;;;;;;24.52;13.73;;;3.00;99.90;;;;;;5053046;28;20190;-56
2021/01/01 04:10:04;;;;;;;23.75;12.48;;;3.00;99.90;;;;;;5052616;28;20627;-56
2021/01/01 04:12:30;;;;;;;24.52;12.77;;;3.00;99.90;;;;;;5052765;28;20183;-57
2021/01/01 04:14:56;;;;;;;23.27;13.23;;;2.90;99.90;;;;;;5053436;28;20175;-57
2021/01/01 04:17:23;;;;;;;28.05;13.32;;;2.80;99.90;;;;;;5053051;28;20174;-56
2021/01/01 04:19:49;;;;;;;25.13;13.07;;;2.90;99.90;;;;;;5052640;28;20183;-57
2021/01/01 04:22:15;;;;;;;25.98;13.52;;;2.90;99.90;;;;;;5052603;28;20198;-56
2021/01/01 04:24:41;;;;;;;23.65;12.52;;;2.90;99.90;;;;;;5052470;28;20237;-54
2021/01/01 04:27:07;;;;;;;25.52;13.05;;;2.90;99.90;;;;;;5052586;28;20175;-56
2021/01/01 04:29:33;;;;;;;25.65;13.10;;;2.90;99.90;;;;;;5051054;28;20198;-56
2021/01/01 04:31:59;;;;;;;28.65;13.50;;;2.90;99.90;;;;;;5052771;28;20182;-57
2021/01/01 04:34:25;;;;;;;25.17;13.20;;;2.80;99.90;;;;;;5051057;28;20209;-57
2021/01/01 04:36:52;;;;;;;27.63;14.02;;;2.80;99.90;;;;;;5052754;28;20520;-56
2021/01/01 04:39:18;;;;;;;27.85;13.63;;;2.70;99.90;;;;;;5052239;28;20195;-57
2021/01/01 04:41:44;;;;;;;24.08;12.75;;;2.60;99.90;;;;;;5052058;28;20175;-57
2021/01/01 04:44:10;;;;;;;28.10;13.20;;;2.60;99.90;;;;;;5051615;28;20691;-57
2021/01/01 04:46:37;;;;;;;29.75;14.00;;;2.60;99.90;;;;;;5053140;28;20177;-57
2021/01/01 04:49:03;;;;;;;29.67;13.52;;;2.60;99.90;;;;;;5052724;28;20193;-56
2021/01/01 04:51:29;;;;;;;26.23;13.23;;;2.50;99.90;;;;;;5052640;28;20553;-57
2021/01/01 04:53:56;;;;;;;28.02;14.15;;;2.50;99.90;;;;;;5052483;28;20190;-56
2021/01/01 04:56:22;;;;;;;28.63;13.60;;;2.40;99.90;;;;;;5051797;28;20175;-57
2021/01/01 04:58:48;;;;;;;28.25;13.93;;;2.50;99.90;;;;;;5052095;28;20182;-58
2021/01/01 05:01:14;;;;;;;28.10;14.07;;;2.50;99.90;;;;;;5051625;28;20187;-57
2021/01/01 05:03:40;;;;;;;28.92;13.50;;;2.50;99.90;;;;;;5052300;28;20218;-57
2021/01/01 05:06:07;;;;;;;26.90;12.98;;;2.60;99.90;;;;;;5051914;28;20549;-57
2021/01/01 05:08:33;;;;;;;27.98;12.38;;;2.60;99.90;;;;;;5052422;28;20214;-57
2021/01/01 05:11:09;;;;;;;29.63;13.95;;;2.60;99.90;;;;;;5052589;28;20171;-57
2021/01/01 05:13:35;;;;;;;25.23;12.43;;;2.50;99.90;;;;;;5052174;28;20178;-57
2021/01/01 05:16:01;;;;;;;27.90;13.27;;;2.50;99.90;;;;;;5052656;28;20171;-57
2021/01/01 05:18:29;;;;;;;25.35;12.25;;;2.60;99.90;;;;;;5051984;28;20187;-57
2021/01/01 05:20:57;;;;;;;24.67;13.05;;;2.60;99.90;;;;;;5052041;28;20179;-57
2021/01/01 05:23:27;;;;;;;23.08;12.23;;;2.60;99.90;;;;;;5052018;28;20221;-56
2021/01/01 05:26:15;;;;;;;23.13;12.02;;;2.70;99.90;;;;;;5052005;28;20786;-56
2021/01/01 05:28:51;;;;;;;23.70;12.27;;;2.80;99.90;;;;;;5051410;28;20667;-56
2021/01/01 05:31:21;;;;;;;23.20;11.30;;;2.80;99.90;;;;;;5050744;28;20174;-57
2021/01/01 05:34:00;;;;;;;24.92;12.13;;;2.90;99.90;;;;;;5051499;28;20189;-57
2021/01/01 05:36:40;;;;;;;22.38;11.52;;;2.80;99.90;;;;;;5051491;28;20985;-56
2021/01/01 05:39:25;;;;;;;22.85;11.27;;;2.80;99.90;;;;;;5051919;28;20163;-56
2021/01/01 05:41:52;;;;;;;19.42;11.02;;;2.80;99.90;;;;;;5052121;28;20197;-57
2021/01/01 05:44:22;;;;;;;21.00;10.93;;;2.80;99.90;;;;;;5051769;28;20659;-56
2021/01/01 05:47:09;;;;;;;20.55;10.60;;;2.80;99.90;;;;;;5051613;28;20686;-56
2021/01/01 05:49:41;;;;;;;21.17;10.38;;;2.80;99.90;;;;;;5051548;28;20166;-55
2021/01/01 05:52:11;;;;;;;21.77;10.25;;;2.80;99.90;;;;;;5051615;28;20182;-57
2021/01/01 05:54:39;;;;;;;19.08;9.88;;;2.90;99.90;;;;;;5055023;28;20195;-56
2021/01/01 05:57:06;;;;;;;18.42;9.65;;;2.90;99.90;;;;;;5055343;28;20201;-57
2021/01/01 05:59:37;;;;;;;16.80;9.38;;;2.90;99.90;;;;;;5054220;28;20241;-56
2021/01/01 06:02:04;;;;;;;19.02;9.25;;;2.90;99.90;;;;;;5055416;28;20178;-57
2021/01/01 06:04:31;;;;;;;17.33;9.05;;;2.90;99.90;;;;;;5055339;28;20207;-56
2021/01/01 06:07:01;;;;;;;18.15;8.55;;;2.90;99.90;;;;;;5054943;28;20579;-56
2021/01/01 06:09:29;;;;;;;14.70;8.05;;;3.00;99.90;;;;;;5046954;28;20187;-56
2021/01/01 06:12:15;;;;;;;14.65;7.97;;;3.00;99.90;;;;;;5055112;28;20193;-57
2021/01/01 06:14:43;;;;;;;14.48;8.13;;;3.00;99.90;;;;;;5054167;28;20186;-57
2021/01/01 06:17:09;;;;;;;16.70;8.60;;;3.00;99.90;;;;;;5055110;28;20162;-57
2021/01/01 06:19:52;;;;;;;16.13;8.30;;;3.00;99.90;;;;;;5055321;28;20175;-57
2021/01/01 06:22:22;;;;;;;15.15;8.60;;;3.00;99.90;;;;;;5054350;28;20167;-58
2021/01/01 06:24:49;;;;;;;13.18;7.95;;;3.00;99.90;;;;;;5054917;28;20577;-57
2021/01/01 06:27:16;;;;;;;13.15;7.10;;;3.00;99.90;;;;;;5054663;28;20190;-56
2021/01/01 06:29:43;;;;;;;14.98;7.97;;;3.00;99.90;;;;;;5053955;28;20535;-57
2021/01/01 06:32:10;;;;;;;15.95;8.70;;;3.00;99.90;;;;;;5054432;28;20185;-56
2021/01/01 06:34:36;;;;;;;14.98;8.10;;;3.00;99.90;;;;;;5054837;28;20175;-56
2021/01/01 06:37:02;;;;;;;13.85;8.05;;;3.00;99.90;;;;;;5052638;28;20182;-56
2021/01/01 06:39:42;;;;;;;15.15;8.77;;;3.10;99.90;;;;;;5053302;28;20178;-57
2021/01/01 06:42:09;;;;;;;13.70;7.97;;;3.10;99.90;;;;;;5054257;28;20177;-57
2021/01/01 06:44:44;;;;;;;12.20;7.30;;;3.10;99.90;;;;;;5053970;28;20206;-56
2021/01/01 06:47:31;;;;;;;13.73;7.53;;;3.00;99.90;;;;;;5054402;28;20162;-57
2021/01/01 06:49:57;;;;;;;13.57;7.88;;;3.00;99.90;;;;;;5054362;28;20178;-57
2021/01/01 06:52:23;;;;;;;13.75;7.88;;;3.00;99.90;;;;;;5054600;28;20627;-56
2021/01/01 06:54:59;;;;;;;12.50;7.18;;;3.00;99.90;;;;;;5052248;28;20199;-57
2021/01/01 06:57:29;;;;;;;12.82;7.22;;;3.10;99.90;;;;;;5053679;28;20189;-56
2021/01/01 06:59:56;;;;;;;12.07;7.43;;;3.10;99.90;;;;;;5054326;28;20574;-56
2021/01/01 07:02:26;;;;;;;13.23;6.57;;;3.10;99.90;;;;;;5053993;28;20181;-56
2021/01/01 07:04:52;;;;;;;10.75;6.30;;;3.00;99.90;;;;;;5052253;28;20210;-58
2021/01/01 07:07:43;;;;;;;9.02;5.90;;;3.10;99.90;;;;;;5054110;28;20196;-57
2021/01/01 07:10:35;;;;;;;10.40;6.07;;;3.10;99.90;;;;;;5048472;28;20171;-57
2021/01/01 07:13:17;;;;;;;9.27;5.22;;;3.10;99.90;;;;;;5054656;28;20170;-55
2021/01/01 07:15:43;;;;;;;9.65;5.40;;;3.10;99.90;;;;;;5054301;28;20170;-57
2021/01/01 07:18:09;;;;;;;8.68;5.28;;;3.10;99.90;;;;;;5052477;28;20175;-58
2021/01/01 07:20:43;;;;;;;9.13;5.68;;;3.10;99.90;;;;;;5054076;28;20182;-57
2021/01/01 07:23:10;;;;;;;8.25;5.15;;;3.10;99.90;;;;;;5054021;28;20206;-57
2021/01/01 07:25:39;;;;;;;8.10;5.38;;;3.10;99.90;;;;;;5054148;28;20225;-56
2021/01/01 07:28:06;;;;;;;8.90;5.70;;;3.10;99.90;;;;;;5051781;28;20191;-57
2021/01/01 07:30:35;;;;;;;9.85;5.85;;;3.10;99.90;;;;;;5053653;28;20179;-55
2021/01/01 07:33:02;;;;;;;8.95;5.03;;;3.10;99.90;;;;;;5052438;28;20546;-57
2021/01/01 07:35:28;;;;;;;8.75;5.03;;;3.00;99.90;;;;;;5053038;28;20174;-56
2021/01/01 07:37:55;;;;;;;9.23;5.57;;;3.00;99.90;;;;;;5053526;28;20625;-57
2021/01/01 07:40:21;;;;;;;10.43;5.25;;;3.10;99.90;;;;;;5052934;28;20647;-57
2021/01/01 07:42:51;;;;;;;9.07;5.28;;;3.10;99.90;;;;;;5053181;28;20193;-58
2021/01/01 07:45:18;;;;;;;11.30;5.93;;;3.10;99.90;;;;;;5052892;28;20175;-57
2021/01/01 07:47:45;;;;;;;10.45;5.70;;;3.10;99.90;;;;;;5052435;28;20179;-58
2021/01/01 07:50:15;;;;;;;12.13;6.30;;;3.00;99.90;;;;;;5052737;28;20175;-58
2021/01/01 07:52:41;;;;;;;10.80;6.10;;;3.00;99.90;;;;;;5053475;28;20185;-57
2021/01/01 07:55:08;;;;;;;14.02;6.68;;;3.00;99.90;;;;;;5053274;28;20182;-57
2021/01/01 07:57:39;;;;;;;10.20;5.55;;;3.00;99.90;;;;;;5053466;28;20217;-57
2021/01/01 08:00:06;;;;;;;11.82;6.53;;;2.90;99.90;;;;;;5052817;28;20177;-57
2021/01/01 08:02:32;;;;;;;12.38;6.63;;;3.00;99.90;;;;;;5052682;28;20202;-58
2021/01/01 08:05:01;;;;;;;11.98;6.68;;;3.00;99.90;;;;;;5052921;28;20217;-58
2021/01/01 08:07:27;;;;;;;11.20;6.60;;;2.90;99.90;;;;;;5052983;28;20175;-58
2021/01/01 08:09:53;;;;;;;12.00;6.38;;;3.00;99.90;;;;;;5052232;28;20178;-58
2021/01/01 08:12:19;;;;;;;13.93;7.15;;;3.00;99.90;;;;;;5052629;28;20171;-58
2021/01/01 08:14:52;;;;;;;12.40;7.28;;;2.90;99.90;;;;;;5052278;28;20175;-57
2021/01/01 08:17:23;;;;;;;13.00;7.65;;;2.90;99.90;;;;;;5052683;28;20175;-57
2021/01/01 08:19:49;;;;;;;14.18;7.97;;;3.00;99.90;;;;;;5053413;28;20158;-58
2021/01/01 08:22:20;;;;;;;14.50;8.13;;;3.00;99.90;;;;;;5052558;28;20193;-57
2021/01/01 08:24:46;;;;;;;15.40;8.68;;;3.00;99.90;;;;;;5034742;28;20691;-58
2021/01/01 08:27:12;;;;;;;16.10;8.88;;;3.00;99.90;;;;;;5050957;28;20186;-57
2021/01/01 08:29:38;;;;;;;14.30;8.15;;;3.00;99.90;;;;;;5051257;28;20183;-57
2021/01/01 08:32:04;;;;;;;12.68;7.47;;;3.00;99.90;;;;;;5050396;28;20559;-58
2021/01/01 08:34:31;;;;;;;17.77;8.60;;;3.00;99.90;;;;;;5051178;28;20174;-57
2021/01/01 08:36:57;;;;;;;13.95;8.07;;;3.00;99.90;;;;;;5052861;28;20190;-57
2021/01/01 08:39:24;;;;;;;13.20;7.65;;;3.00;99.90;;;;;;5052482;28;20234;-56
2021/01/01 08:41:50;;;;;;;13.30;7.50;;;2.90;99.90;;;;;;5052387;28;20170;-57
2021/01/01 08:44:16;;;;;;;12.45;7.50;;;2.90;99.90;;;;;;5052300;28;20203;-57
2021/01/01 08:46:43;;;;;;;16.77;8.18;;;2.90;99.90;;;;;;5052466;28;20773;-57
2021/01/01 08:49:32;;;;;;;15.77;8.30;;;3.00;99.90;;;;;;5049731;28;20176;-58
2021/01/01 08:51:58;;;;;;;14.27;8.30;;;3.00;99.90;;;;;;5051376;28;20171;-57
2021/01/01 08:54:24;;;;;;;14.15;7.80;;;3.00;99.90;;;;;;5050183;28;20182;-56
2021/01/01 08:57:00;;;;;;;13.98;8.02;;;3.00;99.90;;;;;;5052391;28;20182;-58
2021/01/01 08:59:26;;;;;;;15.02;7.88;;;3.00;99.90;;;;;;5050989;28;20522;-57
2021/01/01 09:01:53;;;;;;;12.10;7.20;;;3.10;99.90;;;;;;5049947;28;20179;-57
2021/01/01 09:04:29;;;;;;;16.20;8.35;;;3.10;99.90;;;;;;5051758;28;20202;-57
2021/01/01 09:06:59;;;;;;;17.80;7.68;;;3.10;99.90;;;;;;5052436;28;20190;-58
2021/01/01 09:09:27;;;;;;;13.10;7.78;;;3.10;99.90;;;;;;5051902;28;20185;-57
2021/01/01 09:12:10;;;;;;;12.88;8.18;;;3.20;99.90;;;;;;5036671;28;20174;-58
2021/01/01 09:14:50;;;;;;;13.18;8.02;;;3.10;99.90;;;;;;5051285;28;20170;-58
2021/01/01 09:17:26;;;;;;;14.82;8.43;;;3.10;99.90;;;;;;5051642;28;20177;-58
2021/01/01 09:20:08;;;;;;;15.57;7.88;;;3.10;99.90;;;;;;5051927;28;20170;-57
2021/01/01 09:22:35;;;;;;;16.35;8.25;;;3.20;99.90;;;;;;5051478;28;20178;-58
2021/01/01 09:25:21;;;;;;;14.27;8.05;;;3.30;99.90;;;;;;5050439;28;20230;-56
2021/01/01 09:27:48;;;;;;;16.25;8.57;;;3.30;99.90;;;;;;5053261;28;20178;-57
2021/01/01 09:30:18;;;;;;;12.05;7.55;;;3.30;99.90;;;;;;5055777;28;20674;-57
2021/01/01 09:32:45;;;;;;;14.13;8.35;;;3.40;99.90;;;;;;5056366;28;20183;-57
2021/01/01 09:35:13;;;;;;;16.42;8.13;;;3.40;99.90;;;;;;5056234;28;20170;-58
2021/01/01 09:37:51;;;;;;;13.32;7.40;;;3.40;99.90;;;;;;5055896;28;20541;-56
2021/01/01 09:40:19;;;;;;;13.25;7.63;;;3.40;99.90;;;;;;5054549;28;20525;-57
2021/01/01 09:42:45;;;;;;;13.88;7.95;;;3.50;99.90;;;;;;5056408;28;20175;-56
2021/01/01 09:45:12;;;;;;;13.65;7.63;;;3.50;99.90;;;;;;5055910;28;20195;-56
2021/01/01 09:47:38;;;;;;;13.30;7.53;;;3.50;99.90;;;;;;5055775;28;20179;-58
2021/01/01 09:50:05;;;;;;;10.07;6.70;;;3.60;99.90;;;;;;5055836;28;20189;-57
2021/01/01 09:52:31;;;;;;;13.68;7.07;;;3.60;99.90;;;;;;5055680;28;20670;-57
2021/01/01 09:54:57;;;;;;;11.23;6.10;;;3.50;99.90;;;;;;5056061;28;20179;-57
2021/01/01 09:57:24;;;;;;;11.23;6.03;;;3.50;99.90;;;;;;5058995;28;20178;-57
2021/01/01 09:59:50;;;;;;;11.05;6.07;;;3.50;99.90;;;;;;5075879;28;20170;-58
2021/01/01 10:02:16;;;;;;;10.10;5.53;;;3.50;99.90;;;;;;5071430;28;20191;-58
2021/01/01 10:04:42;;;;;;;8.40;5.22;;;3.30;99.90;;;;;;5055318;28;20222;-58
2021/01/01 10:07:09;;;;;;;7.93;4.70;;;3.40;99.90;;;;;;5055361;28;20182;-57
2021/01/01 10:09:35;;;;;;;5.97;3.63;;;3.30;99.90;;;;;;5055310;28;20194;-57
2021/01/01 10:12:07;;;;;;;6.60;3.78;;;3.30;99.90;;;;;;5054960;28;20171;-57
2021/01/01 10:14:33;;;;;;;7.97;4.22;;;3.30;99.90;;;;;;5054706;28;20186;-57
2021/01/01 10:16:59;;;;;;;6.25;3.35;;;3.30;99.90;;;;;;5053050;28;20683;-57
2021/01/01 10:19:26;;;;;;;4.97;3.35;;;3.30;99.90;;;;;;5052678;28;20221;-57
2021/01/01 10:21:52;;;;;;;4.93;2.75;;;3.30;99.90;;;;;;5053428;28;20180;-56
2021/01/01 10:24:18;;;;;;;4.40;2.72;;;3.30;99.90;;;;;;5053056;28;20214;-57
2021/01/01 10:26:51;;;;;;;3.83;2.42;;;3.30;99.90;;;;;;5052929;28;20211;-56
2021/01/01 10:29:17;;;;;;;3.42;2.30;;;3.40;99.90;;;;;;5052443;28;20190;-58
2021/01/01 10:31:44;;;;;;;4.15;2.53;;;3.50;99.90;;;;;;5054161;28;20179;-59
2021/01/01 10:34:11;;;;;;;5.22;2.90;;;3.50;99.90;;;;;;5050082;28;20195;-58
2021/01/01 10:36:38;;;;;;;5.20;2.55;;;3.50;99.90;;;;;;5055002;28;20170;-58
2021/01/01 10:39:08;;;;;;;6.43;2.95;;;3.60;99.90;;;;;;5053756;28;20202;-58
2021/01/01 10:41:34;;;;;;;4.82;3.15;;;3.50;99.90;;;;;;5053611;28;20171;-58
2021/01/01 10:44:02;;;;;;;3.80;2.55;;;3.50;99.90;;;;;;5054104;28;20561;-58
2021/01/01 10:46:28;;;;;;;4.78;2.63;;;3.50;99.90;;;;;;5057152;28;20179;-58
2021/01/01 10:48:54;;;;;;;5.25;3.20;;;3.40;99.90;;;;;;5054333;28;20175;-59
2021/01/01 10:51:24;;;;;;;4.85;3.03;;;3.40;99.90;;;;;;5054761;28;20171;-58
2021/01/01 10:53:50;;;;;;;4.38;2.88;;;3.50;99.90;;;;;;5057587;28;20186;-58
2021/01/01 10:56:26;;;;;;;4.20;2.70;;;3.50;99.90;;;;;;5054245;28;20163;-58
2021/01/01 10:58:52;;;;;;;6.22;2.83;;;3.50;99.90;;;;;;5054631;28;20170;-58
2021/01/01 11:01:22;;;;;;;5.00;3.20;;;3.60;99.90;;;;;;5052466;28;20198;-57
2021/01/01 11:03:48;;;;;;;4.95;2.88;;;3.60;99.90;;;;;;5053618;28;20582;-58
2021/01/01 11:06:15;;;;;;;4.95;3.22;;;3.70;99.90;;;;;;5053861;28;20198;-58
2021/01/01 11:08:41;;;;;;;6.65;3.58;;;3.70;99.90;;;;;;5054317;28;20177;-58
2021/01/01 11:11:09;;;;;;;7.60;3.30;;;3.70;99.90;;;;;;5053562;28;20190;-58
2021/01/01 11:13:38;;;;;;;5.95;3.38;;;3.70;99.90;;;;;;5054154;28;20171;-58
2021/01/01 12:22:12;;;;;;;12.90;6.97;;;3.40;99.90;;;;;;5059492;28;20178;-59
2021/01/01 12:24:46;;;;;;;14.15;7.78;;;3.50;99.90;;;;;;5047755;28;20321;-59
2021/01/01 12:27:20;;;;;;;12.45;6.90;;;3.50;99.90;;;;;;5050599;28;20185;-59
2021/01/01 12:29:47;;;;;;;11.63;6.80;;;3.50;99.90;;;;;;5043020;28;20174;-59
2021/01/01 12:32:15;;;;;;;14.38;7.85;;;3.40;99.90;;;;;;5047825;28;20681;-58
2021/01/01 12:34:42;;;;;;;13.68;7.63;;;3.40;99.90;;;;;;5050862;28;20182;-59
2021/01/01 12:37:08;;;;;;;16.20;7.78;;;3.40;99.90;;;;;;5052188;28;20175;-60
2021/01/01 12:39:34;;;;;;;14.25;7.90;;;3.40;99.90;;;;;;5051634;28;20166;-59
2021/01/01 12:42:02;;;;;;;15.38;7.63;;;3.40;99.90;;;;;;5052961;28;20185;-59
2021/01/01 12:44:29;;;;;;;14.65;8.07;;;3.40;99.90;;;;;;5051956;28;20576;-59
2021/01/01 12:46:56;;;;;;;15.02;8.32;;;3.50;99.90;;;;;;5051494;28;20187;-59
2021/01/01 12:49:22;;;;;;;15.38;8.43;;;3.40;99.90;;;;;;5050363;28;20182;-59
2021/01/01 12:51:48;;;;;;;16.20;8.90;;;3.50;99.90;;;;;;5052587;28;20189;-59
2021/01/01 12:54:14;;;;;;;14.45;8.23;;;3.50;99.90;;;;;;5051892;28;20186;-59
2021/01/01 12:56:40;;;;;;;14.30;8.00;;;3.50;99.90;;;;;;5051407;28;20186;-59
2021/01/01 12:59:07;;;;;;;15.02;8.40;;;3.60;99.90;;;;;;5047016;28;20628;-59
2021/01/01 13:01:33;;;;;;;17.10;9.23;;;3.50;99.90;;;;;;5032873;28;20530;-59
2021/01/01 13:03:59;;;;;;;14.63;8.13;;;3.50;99.90;;;;;;5048720;28;20179;-59
2021/01/01 13:06:26;;;;;;;16.50;8.48;;;3.50;99.90;;;;;;5052200;28;20569;-59
2021/01/01 13:08:53;;;;;;;16.02;8.07;;;3.50;99.90;;;;;;5048448;28;20181;-59
2021/01/01 13:11:19;;;;;;;15.30;8.82;;;3.50;99.90;;;;;;5043920;28;20179;-59
2021/01/01 13:13:45;;;;;;;14.30;8.20;;;3.50;99.90;;;;;;5045862;28;20201;-59
2021/01/01 13:16:11;;;;;;;14.70;8.27;;;3.50;99.90;;;;;;5051944;28;20202;-59
2021/01/01 13:18:37;;;;;;;19.27;9.95;;;3.50;99.90;;;;;;5052749;28;20177;-59
2021/01/01 13:21:06;;;;;;;17.67;9.40;;;3.50;99.90;;;;;;5052323;28;20181;-59
2021/01/01 13:23:38;;;;;;;16.55;8.98;;;3.50;99.90;;;;;;5051623;28;20643;-62
2021/01/01 13:26:04;;;;;;;21.45;8.75;;;3.60;99.90;;;;;;5047376;28;20224;-60
2021/01/01 13:28:30;;;;;;;14.95;8.80;;;3.60;99.90;;;;;;5049243;28;20186;-59
2021/01/01 13:30:56;;;;;;;16.52;8.73;;;3.60;99.90;;;;;;5051620;28;20194;-59
2021/01/01 13:33:23;;;;;;;18.63;9.00;;;3.60;99.90;;;;;;5050727;28;20185;-59
2021/01/01 13:35:51;;;;;;;14.68;8.63;;;3.60;99.90;;;;;;5051116;28;20179;-59
2021/01/01 13:38:19;;;;;;;19.55;9.25;;;3.60;99.90;;;;;;5050632;28;20237;-61
2021/01/01 13:40:45;;;;;;;18.23;9.57;;;3.60;99.90;;;;;;5055041;28;20170;-58
2021/01/01 13:43:11;;;;;;;16.42;8.35;;;3.50;99.90;;;;;;5059331;28;20911;-59
2021/01/01 13:45:39;;;;;;;17.70;9.32;;;3.50;99.90;;;;;;5054247;28;20667;-59
2021/01/01 13:48:06;;;;;;;18.13;9.55;;;3.50;99.90;;;;;;5059237;28;20177;-60
2021/01/01 13:50:32;;;;;;;16.10;9.38;;;3.50;99.90;;;;;;5054939;28;20178;-59
2021/01/01 13:52:58;;;;;;;19.25;9.20;;;3.50;99.90;;;;;;5051952;28;20170;-59
2021/01/01 13:55:24;;;;;;;18.92;10.07;;;3.50;99.90;;;;;;5049406;28;20265;-57